createdAt,value
2023-05-01T00:02:16.172Z,99581.06
2023-05-01T00:05:21.285Z,99581.88
2023-05-01T00:08:24.930Z,99574.94
2023-05-01T00:11:28.343Z,99573.66
2023-05-01T00:14:31.820Z,99573.88
2023-05-01T00:17:35.329Z,99574.63
2023-05-01T00:20:40.338Z,99576.59
2023-05-01T00:23:43.903Z,99566.59
2023-05-01T00:26:47.749Z,99561.91
2023-05-01T00:29:51.997Z,99566.41
2023-05-01T00:32:55.458Z,99559.63
2023-05-01T00:36:01.407Z,99551.00
2023-05-01T00:39:06.057Z,99555.56
2023-05-01T00:42:09.703Z,99554.81
2023-05-01T00:45:14.467Z,99552.50
2023-05-01T00:48:17.992Z,99554.72
2023-05-01T00:51:23.604Z,99548.38
2023-05-01T00:54:28.322Z,99550.28
2023-05-01T00:57:31.964Z,99547.34
2023-05-01T01:00:35.465Z,99545.84
2023-05-01T01:03:39.067Z,99544.69
2023-05-01T01:06:54.453Z,99542.38
2023-05-01T01:10:06.688Z,99534.31
2023-05-01T01:13:19.413Z,99546.16
2023-05-01T01:16:29.752Z,99550.16
2023-05-01T01:20:15.019Z,99545.94
2023-05-01T01:24:05.277Z,99542.47
2023-05-01T01:27:51.432Z,99539.06
2023-05-01T01:31:10.745Z,99542.47
2023-05-01T01:34:21.369Z,99537.34
2023-05-01T01:37:30.440Z,99539.25
2023-05-01T01:40:38.529Z,99538.28
2023-05-01T01:43:45.899Z,99535.91
2023-05-01T01:46:52.559Z,99536.31
2023-05-01T01:49:58.919Z,99532.78
2023-05-01T01:53:03.969Z,99532.69
2023-05-01T01:56:09.265Z,99530.56
2023-05-01T01:59:13.086Z,99533.06
2023-05-01T02:02:20.102Z,99522.97
2023-05-01T02:05:27.695Z,99520.25
2023-05-01T02:08:34.541Z,99513.44
2023-05-01T02:11:39.253Z,99513.53
2023-05-01T02:14:44.403Z,99510.44
2023-05-01T02:17:49.131Z,99508.03
2023-05-01T02:20:54.983Z,99507.38
2023-05-01T02:24:01.765Z,99510.25
2023-05-01T02:27:12.595Z,99501.84
2023-05-01T02:30:16.228Z,99510.88
2023-05-01T02:33:19.815Z,99509.09
2023-05-01T02:36:25.042Z,99497.44
2023-05-01T02:39:28.472Z,99504.88
2023-05-01T02:42:34.572Z,99499.53
2023-05-01T02:45:40.080Z,99491.59
2023-05-01T02:48:45.629Z,99492.41
2023-05-01T02:51:51.313Z,99493.88
2023-05-01T02:54:55.200Z,99491.91
2023-05-01T02:58:00.490Z,99498.84
2023-05-01T03:01:04.533Z,99482.06
2023-05-01T03:04:08.048Z,99482.56
2023-05-01T03:07:14.001Z,99483.03
2023-05-01T03:10:17.393Z,99486.09
2023-05-01T03:13:22.004Z,99486.16
2023-05-01T03:16:25.758Z,99478.72
2023-05-01T03:19:29.274Z,99484.69
2023-05-01T03:22:34.255Z,99481.44
2023-05-01T03:25:38.693Z,99483.78
2023-05-01T03:28:42.999Z,99478.50
2023-05-01T03:31:46.699Z,99477.81
2023-05-01T03:34:50.732Z,99475.94
2023-05-01T03:37:56.563Z,99473.63
2023-05-01T03:41:20.301Z,99477.75
2023-05-01T03:44:59.099Z,99481.63
2023-05-01T03:48:02.888Z,99475.38
2023-05-01T03:51:07.454Z,99487.41
2023-05-01T03:54:14.158Z,99482.50
2023-05-01T03:57:38.012Z,99484.47
2023-05-01T04:00:42.303Z,99484.53
2023-05-01T04:03:47.831Z,99487.03
2023-05-01T04:06:51.861Z,99475.47
2023-05-01T04:09:57.421Z,99479.16
2023-05-01T04:13:00.981Z,99484.09
2023-05-01T04:16:04.853Z,99479.72
2023-05-01T04:19:09.180Z,99482.03
2023-05-01T04:22:17.637Z,99477.13
2023-05-01T04:25:22.766Z,99479.09
2023-05-01T04:28:31.362Z,99481.88
2023-05-01T04:31:35.290Z,99471.41
2023-05-01T04:34:39.418Z,99474.75
2023-05-01T04:37:42.969Z,99480.53
2023-05-01T04:40:47.823Z,99479.06
2023-05-01T04:43:52.355Z,99483.59
2023-05-01T04:46:56.166Z,99476.78
2023-05-01T04:49:59.833Z,99477.41
2023-05-01T04:53:03.878Z,99480.34
2023-05-01T04:56:09.586Z,99477.03
2023-05-01T04:59:14.009Z,99467.19
2023-05-01T05:02:17.596Z,99470.09
2023-05-01T05:05:21.143Z,99477.75
2023-05-01T05:08:25.908Z,99477.97
2023-05-01T05:11:33.378Z,99484.19
2023-05-01T05:14:43.119Z,99483.72
2023-05-01T05:17:48.727Z,99473.13
2023-05-01T05:20:52.343Z,99474.06
2023-05-01T05:23:56.213Z,99470.69
2023-05-01T05:27:01.328Z,99462.53
2023-05-01T05:30:06.272Z,99466.50
2023-05-01T05:33:11.503Z,99472.44
2023-05-01T05:36:14.918Z,99468.56
2023-05-01T05:39:20.654Z,99470.84
2023-05-01T05:42:25.987Z,99476.13
2023-05-01T05:45:29.528Z,99479.78
2023-05-01T05:48:33.802Z,99471.53
2023-05-01T05:51:37.258Z,99478.97
2023-05-01T05:54:42.110Z,99467.88
2023-05-01T05:57:47.017Z,99471.56
2023-05-01T06:00:53.254Z,99479.09
2023-05-01T06:03:56.936Z,99478.25
2023-05-01T06:07:02.213Z,99474.13
2023-05-01T06:10:07.196Z,99473.59
2023-05-01T06:13:13.932Z,99471.59
2023-05-01T06:16:21.824Z,99473.66
2023-05-01T06:19:25.341Z,99472.81
2023-05-01T06:22:36.003Z,99470.06
2023-05-01T06:25:53.399Z,99455.38
2023-05-01T06:28:58.160Z,99457.25
2023-05-01T06:32:02.664Z,99455.47
2023-05-01T06:35:06.862Z,99455.78
2023-05-01T06:38:10.765Z,99464.31
2023-05-01T06:41:14.341Z,99458.53
2023-05-01T06:44:19.563Z,99464.03
2023-05-01T06:47:23.289Z,99450.44
2023-05-01T06:50:26.943Z,99456.56
2023-05-01T06:53:30.354Z,99451.31
2023-05-01T06:56:34.671Z,99450.34
2023-05-01T06:59:40.295Z,99456.56
2023-05-01T07:02:44.175Z,99453.38
2023-05-01T07:05:47.892Z,99451.75
2023-05-01T07:08:52.142Z,99446.63
2023-05-01T07:11:57.058Z,99455.41
2023-05-01T07:15:02.045Z,99454.28
2023-05-01T07:18:06.589Z,99450.03
2023-05-01T07:21:12.118Z,99440.16
2023-05-01T07:24:15.437Z,99442.38
2023-05-01T07:27:19.133Z,99442.56
2023-05-01T07:30:24.150Z,99438.63
2023-05-01T07:33:27.728Z,99445.06
2023-05-01T07:36:31.179Z,99433.22
2023-05-01T07:39:34.812Z,99428.75
2023-05-01T07:42:38.140Z,99430.38
2023-05-01T07:45:43.425Z,99434.06
2023-05-01T07:48:46.876Z,99428.84
2023-05-01T07:51:50.449Z,99424.41
2023-05-01T07:54:57.551Z,99415.06
2023-05-01T07:58:00.951Z,99414.41
2023-05-01T08:01:07.824Z,99419.91
2023-05-01T08:04:11.382Z,99417.84
2023-05-01T08:07:15.234Z,99410.38
2023-05-01T08:10:18.777Z,99408.50
2023-05-01T08:13:22.245Z,99415.44
2023-05-01T08:16:27.368Z,99411.03
2023-05-01T08:19:31.020Z,99418.25
2023-05-01T08:22:34.640Z,99409.00
2023-05-01T08:25:38.109Z,99411.28
2023-05-01T08:28:42.338Z,99408.06
2023-05-01T08:31:47.555Z,99407.81
2023-05-01T08:34:51.292Z,99411.06
2023-05-01T08:37:54.804Z,99400.03
2023-05-01T08:41:00.247Z,99411.84
2023-05-01T08:44:04.778Z,99412.38
2023-05-01T08:47:16.149Z,99411.06
2023-05-01T08:50:20.857Z,99402.34
2023-05-01T08:53:25.742Z,99406.34
2023-05-01T08:56:31.519Z,99404.63
2023-05-01T08:59:36.236Z,99400.03
2023-05-01T09:02:42.568Z,99401.78
2023-05-01T09:05:46.908Z,99402.44
2023-05-01T09:08:50.412Z,99400.00
2023-05-01T09:11:55.429Z,99392.78
2023-05-01T09:14:58.921Z,99388.94
2023-05-01T09:18:04.253Z,99387.72
2023-05-01T09:21:08.544Z,99381.25
2023-05-01T09:24:12.341Z,99380.22
2023-05-01T09:27:16.334Z,99373.59
2023-05-01T09:30:34.694Z,99373.72
2023-05-01T09:33:54.386Z,99370.78
2023-05-01T09:36:57.830Z,99383.88
2023-05-01T09:40:09.975Z,99368.41
2023-05-01T09:43:13.422Z,99365.34
2023-05-01T09:46:17.050Z,99362.34
2023-05-01T09:49:22.110Z,99369.44
2023-05-01T09:52:27.844Z,99353.38
2023-05-01T09:55:31.666Z,99355.19
2023-05-01T09:58:35.094Z,99347.44
2023-05-01T10:01:42.499Z,99348.50
2023-05-01T10:04:47.403Z,99345.91
2023-05-01T10:08:02.478Z,99341.59
2023-05-01T10:11:06.718Z,99334.59
2023-05-01T10:14:11.236Z,99332.25
2023-05-01T10:17:21.168Z,99333.47
2023-05-01T10:20:26.821Z,99327.34
2023-05-01T10:23:30.847Z,99328.81
2023-05-01T10:26:34.743Z,99323.59
2023-05-01T10:29:39.654Z,99306.88
2023-05-01T10:32:43.786Z,99315.78
2023-05-01T10:35:56.771Z,99317.66
2023-05-01T10:39:00.953Z,99310.00
2023-05-01T10:42:11.445Z,99305.19
2023-05-01T10:45:30.866Z,99304.91
2023-05-01T10:48:59.525Z,99302.50
2023-05-01T10:52:04.575Z,99296.75
2023-05-01T10:55:36.332Z,99288.09
2023-05-01T10:59:00.157Z,99293.28
2023-05-01T11:02:23.322Z,99277.00
2023-05-01T11:06:08.335Z,99281.91
2023-05-01T11:09:42.927Z,99275.91
2023-05-01T11:12:52.275Z,99268.63
2023-05-01T11:15:55.948Z,99260.56
2023-05-01T11:18:59.382Z,99258.47
2023-05-01T11:22:03.646Z,99251.88
2023-05-01T11:25:20.702Z,99245.09
2023-05-01T11:28:24.017Z,99235.44
2023-05-01T11:31:28.310Z,99230.72
2023-05-01T11:34:38.165Z,99229.66
2023-05-01T11:37:43.037Z,99229.38
2023-05-01T11:40:56.316Z,99225.31
2023-05-01T11:44:00.282Z,99213.00
2023-05-01T11:47:06.321Z,99219.38
2023-05-01T11:50:11.391Z,99201.03
2023-05-01T11:53:16.797Z,99209.16
2023-05-01T11:56:27.192Z,99196.22
2023-05-01T11:59:31.175Z,99195.59
2023-05-01T12:02:34.755Z,99198.56
2023-05-01T12:05:40.683Z,99195.88
2023-05-01T12:08:46.048Z,99188.00
2023-05-01T12:11:53.343Z,99184.84
2023-05-01T12:14:57.485Z,99181.16
2023-05-01T12:18:01.982Z,99175.97
2023-05-01T12:21:05.371Z,99176.88
2023-05-01T12:24:12.545Z,99168.31
2023-05-01T12:27:17.327Z,99171.03
2023-05-01T12:30:27.031Z,99166.25
2023-05-01T12:33:30.928Z,99161.22
2023-05-01T12:36:35.850Z,99143.28
2023-05-01T12:39:42.867Z,99135.09
2023-05-01T12:42:57.334Z,99136.59
2023-05-01T12:46:01.270Z,99128.34
2023-05-01T12:49:04.824Z,99130.31
2023-05-01T12:52:09.690Z,99124.69
2023-05-01T12:55:13.165Z,99124.16
2023-05-01T12:58:19.320Z,99124.06
2023-05-01T13:01:27.418Z,99113.47
2023-05-01T13:04:31.384Z,99115.66
2023-05-01T13:07:36.622Z,99106.53
2023-05-01T13:10:41.149Z,99087.75
2023-05-01T13:13:48.521Z,99101.16
2023-05-01T13:16:52.869Z,99103.88
2023-05-01T13:19:57.654Z,99100.13
2023-05-01T13:23:01.584Z,99104.44
2023-05-01T13:26:07.149Z,99094.03
2023-05-01T13:29:16.106Z,99084.06
2023-05-01T13:32:21.452Z,99078.19
2023-05-01T13:35:25.813Z,99084.59
2023-05-01T13:38:30.298Z,99076.91
2023-05-01T13:41:36.260Z,99070.13
2023-05-01T13:44:45.860Z,99069.63
2023-05-01T13:47:51.837Z,99064.25
2023-05-01T13:50:55.290Z,99063.53
2023-05-01T13:53:58.904Z,99062.72
2023-05-01T13:57:02.934Z,99055.13
2023-05-01T14:00:10.989Z,99059.34
2023-05-01T14:03:19.002Z,99048.06
2023-05-01T14:06:24.417Z,99047.47
2023-05-01T14:09:29.344Z,99045.38
2023-05-01T14:12:34.129Z,99044.50
2023-05-01T14:15:43.956Z,99045.44
2023-05-01T14:18:48.870Z,99028.97
2023-05-01T14:21:52.284Z,99024.38
2023-05-01T14:24:56.192Z,99020.91
2023-05-01T14:28:02.179Z,99021.47
2023-05-01T14:31:07.640Z,99018.25
2023-05-01T14:34:11.014Z,99015.66
2023-05-01T14:37:15.359Z,99011.94
2023-05-01T14:40:20.230Z,99004.03
2023-05-01T14:43:23.530Z,98997.44
2023-05-01T14:46:31.981Z,99006.69
2023-05-01T14:49:36.070Z,98998.16
2023-05-01T14:52:40.815Z,99006.47
2023-05-01T14:55:44.457Z,99006.19
2023-05-01T14:58:48.331Z,99000.34
2023-05-01T15:01:53.276Z,98988.84
2023-05-01T15:04:56.945Z,98982.34
2023-05-01T15:08:00.800Z,98983.06
2023-05-01T15:11:04.208Z,98978.94
2023-05-01T15:14:07.715Z,98984.09
2023-05-01T15:17:12.617Z,98978.97
2023-05-01T15:20:16.071Z,98975.19
2023-05-01T15:23:19.644Z,98967.31
2023-05-01T15:26:23.042Z,98966.13
2023-05-01T15:29:26.614Z,98961.91
2023-05-01T15:32:31.907Z,98967.59
2023-05-01T15:35:35.469Z,98970.13
2023-05-01T15:38:38.915Z,98958.16
2023-05-01T15:41:43.111Z,98963.19
2023-05-01T15:44:46.630Z,98961.94
2023-05-01T15:47:51.481Z,98945.03
2023-05-01T15:50:55.114Z,98951.91
2023-05-01T15:54:00.270Z,98946.94
2023-05-01T15:57:03.760Z,98944.75
2023-05-01T16:00:08.868Z,98943.31
2023-05-01T16:03:15.204Z,98945.31
2023-05-01T16:06:18.840Z,98941.50
2023-05-01T16:09:31.983Z,98939.47
2023-05-01T16:12:35.576Z,98940.50
2023-05-01T16:15:39.652Z,98933.09
2023-05-01T16:18:46.468Z,98934.59
2023-05-01T16:21:50.437Z,98929.06
2023-05-01T16:24:53.845Z,98926.31
2023-05-01T16:27:57.377Z,98913.81
2023-05-01T16:31:01.085Z,98918.53
2023-05-01T16:34:08.268Z,98912.91
2023-05-01T16:37:14.780Z,98915.75
2023-05-01T16:40:19.310Z,98922.88
2023-05-01T16:43:23.250Z,98921.75
2023-05-01T16:46:27.136Z,98915.31
2023-05-01T16:49:32.319Z,98911.66
2023-05-01T16:52:40.646Z,98908.63
2023-05-01T16:55:44.071Z,98913.53
2023-05-01T16:58:47.862Z,98905.56
2023-05-01T17:01:52.443Z,98900.69
2023-05-01T17:04:57.557Z,98899.78
2023-05-01T17:08:01.322Z,98903.91
2023-05-01T17:11:07.124Z,98907.00
2023-05-01T17:14:10.705Z,98907.44
2023-05-01T17:17:14.292Z,98909.03
2023-05-01T17:20:19.453Z,98910.72
2023-05-01T17:23:23.972Z,98912.53
2023-05-01T17:26:27.368Z,98905.00
2023-05-01T17:29:31.023Z,98903.31
2023-05-01T17:32:37.428Z,98895.59
2023-05-01T17:35:42.655Z,98898.56
2023-05-01T17:38:46.190Z,98905.00
2023-05-01T17:41:50.085Z,98898.13
2023-05-01T17:44:55.956Z,98895.31
2023-05-01T17:47:59.564Z,98896.81
2023-05-01T17:51:04.593Z,98892.13
2023-05-01T17:54:08.063Z,98892.81
2023-05-01T17:57:11.672Z,98887.66
2023-05-01T18:00:16.388Z,98891.66
2023-05-01T18:03:22.471Z,98897.13
2023-05-01T18:06:27.935Z,98898.97
2023-05-01T18:09:31.568Z,98905.97
2023-05-01T18:12:35.351Z,98904.06
2023-05-01T18:15:39.450Z,98903.44
2023-05-01T18:18:42.928Z,98904.03
2023-05-01T18:21:47.643Z,98900.94
2023-05-01T18:24:51.140Z,98901.94
2023-05-01T18:27:55.275Z,98904.19
2023-05-01T18:30:58.742Z,98902.19
2023-05-01T18:34:02.406Z,98911.53
2023-05-01T18:37:07.318Z,98905.75
2023-05-01T18:40:11.670Z,98908.97
2023-05-01T18:43:15.794Z,98911.09
2023-05-01T18:46:19.315Z,98916.28
2023-05-01T18:49:24.227Z,98908.88
2023-05-01T18:52:30.204Z,98919.41
2023-05-01T18:55:33.874Z,98911.56
2023-05-01T18:58:37.767Z,98928.06
2023-05-01T19:01:41.343Z,98925.75
2023-05-01T19:04:56.726Z,98921.09
2023-05-01T19:08:05.514Z,98924.31
2023-05-01T19:11:08.873Z,98917.16
2023-05-01T19:14:12.217Z,98915.84
2023-05-01T19:17:15.900Z,98921.81
2023-05-01T19:20:19.252Z,98918.56
2023-05-01T19:23:24.009Z,98918.16
2023-05-01T19:26:29.370Z,98918.56
2023-05-01T19:29:33.149Z,98919.59
2023-05-01T19:32:36.782Z,98919.19
2023-05-01T19:35:40.290Z,98915.41
2023-05-01T19:38:45.623Z,98915.31
2023-05-01T19:41:49.638Z,98916.16
2023-05-01T19:44:53.033Z,98909.00
2023-05-01T19:47:56.551Z,98909.06
2023-05-01T19:51:00.042Z,98920.16
2023-05-01T19:54:09.233Z,98917.06
2023-05-01T19:57:13.113Z,98914.75
2023-05-01T20:00:17.067Z,98913.56
2023-05-01T20:03:25.844Z,98917.06
2023-05-01T20:06:29.525Z,98921.44
2023-05-01T20:09:34.423Z,98923.75
2023-05-01T20:12:38.361Z,98927.13
2023-05-01T20:15:42.925Z,98927.63
2023-05-01T20:18:46.865Z,98919.84
2023-05-01T20:21:51.768Z,98924.09
2023-05-01T20:24:58.806Z,98922.03
2023-05-01T20:28:03.524Z,98917.22
2023-05-01T20:31:07.050Z,98915.75
2023-05-01T20:34:10.482Z,98914.78
2023-05-01T20:37:14.014Z,98918.91
2023-05-01T20:40:20.930Z,98924.47
2023-05-01T20:43:24.254Z,98933.81
2023-05-01T20:46:28.624Z,98933.09
2023-05-01T20:49:32.202Z,98934.28
2023-05-01T20:52:36.198Z,98938.53
2023-05-01T20:55:40.925Z,98934.72
2023-05-01T20:58:44.438Z,98933.28
2023-05-01T21:01:49.776Z,98933.91
2023-05-01T21:04:53.721Z,98920.84
2023-05-01T21:07:59.144Z,98924.47
2023-05-01T21:11:04.135Z,98932.81
2023-05-01T21:14:07.628Z,98927.28
2023-05-01T21:17:11.099Z,98926.31
2023-05-01T21:20:17.690Z,98934.16
2023-05-01T21:23:21.291Z,98924.97
2023-05-01T21:26:26.271Z,98930.28
2023-05-01T21:29:29.890Z,98925.56
2023-05-01T21:32:35.371Z,98927.84
2023-05-01T21:35:42.925Z,98931.75
2023-05-01T21:38:47.067Z,98930.75
2023-05-01T21:41:52.162Z,98925.81
2023-05-01T21:44:55.606Z,98923.72
2023-05-01T21:47:59.503Z,98926.88
2023-05-01T21:51:03.227Z,98919.97
2023-05-01T21:54:06.870Z,98922.88
2023-05-01T21:57:11.951Z,98915.72
2023-05-01T22:00:15.985Z,98915.88
2023-05-01T22:03:19.868Z,98910.72
2023-05-01T22:06:24.551Z,98912.28
2023-05-01T22:09:28.314Z,98916.06
2023-05-01T22:12:33.056Z,98913.72
2023-05-01T22:15:36.522Z,98913.06
2023-05-01T22:18:40.088Z,98907.03
2023-05-01T22:21:43.641Z,98913.41
2023-05-01T22:24:48.357Z,98902.63
2023-05-01T22:27:53.409Z,98907.59
2023-05-01T22:30:56.825Z,98905.75
2023-05-01T22:34:00.128Z,98905.47
2023-05-01T22:37:03.553Z,98907.03
2023-05-01T22:40:08.513Z,98910.78
2023-05-01T22:43:13.517Z,98910.53
2023-05-01T22:46:17.410Z,98908.78
2023-05-01T22:49:20.781Z,98906.19
2023-05-01T22:52:24.260Z,98908.94
2023-05-01T22:55:27.991Z,98901.25
2023-05-01T22:58:32.929Z,98900.94
2023-05-01T23:01:36.374Z,98898.03
2023-05-01T23:04:39.862Z,98904.63
2023-05-01T23:07:44.340Z,98901.75
2023-05-01T23:10:47.953Z,98904.84
2023-05-01T23:13:52.683Z,98896.66
2023-05-01T23:17:00.632Z,98898.25
2023-05-01T23:20:08.513Z,98886.72
2023-05-01T23:23:15.435Z,98894.53
2023-05-01T23:26:25.671Z,98896.03
2023-05-01T23:29:30.542Z,98886.66
2023-05-01T23:32:35.261Z,98886.78
2023-05-01T23:35:38.737Z,98882.00
2023-05-01T23:38:42.127Z,98875.41
2023-05-01T23:41:45.682Z,98871.38
2023-05-01T23:44:50.525Z,98870.53
2023-05-01T23:47:54.053Z,98870.31
2023-05-01T23:50:57.765Z,98865.63
2023-05-01T23:54:03.360Z,98863.06
2023-05-01T23:57:06.731Z,98864.03
